sensor_id;sensor_type;location;lat;lon;timestamp;pressure;altitude;pressure_sealevel;temperature;humidity
9110;BME280;4590;51.462;6.692;2023-02-16T00:00:43;102256.09;;;8.56;56.80
9110;BME280;4590;51.462;6.692;2023-02-16T00:03:11;102261.56;;;8.56;56.68
9110;BME280;4590;51.462;6.692;2023-02-16T00:05:37;102259.34;;;8.53;56.72
9110;BME280;4590;51.462;6.692;2023-02-16T00:08:03;102257.66;;;8.52;56.91
9110;BME280;4590;51.462;6.692;2023-02-16T00:10:31;102269.72;;;8.51;56.87
9110;BME280;4590;51.462;6.692;2023-02-16T00:12:57;102257.09;;;8.50;56.74
9110;BME280;4590;51.462;6.692;2023-02-16T00:15:41;102259.78;;;8.45;57.02
9110;BME280;4590;51.462;6.692;2023-02-16T00:18:25;102250.91;;;8.38;56.86
9110;BME280;4590;51.462;6.692;2023-02-16T00:20:50;102250.09;;;8.37;57.41
9110;BME280;4590;51.462;6.692;2023-02-16T00:23:15;102245.09;;;8.34;57.02
9110;BME280;4590;51.462;6.692;2023-02-16T00:25:40;102257.72;;;8.35;57.30
9110;BME280;4590;51.462;6.692;2023-02-16T00:28:13;102257.19;;;8.33;56.97
9110;BME280;4590;51.462;6.692;2023-02-16T00:30:39;102251.34;;;8.30;57.25
9110;BME280;4590;51.462;6.692;2023-02-16T00:33:16;102246.03;;;8.23;57.45
9110;BME280;4590;51.462;6.692;2023-02-16T00:35:42;102263.44;;;8.12;58.83
9110;BME280;4590;51.462;6.692;2023-02-16T00:38:08;102255.34;;;8.22;57.27
9110;BME280;4590;51.462;6.692;2023-02-16T00:40:33;102240.78;;;8.22;57.20
9110;BME280;4590;51.462;6.692;2023-02-16T00:42:59;102242.97;;;8.20;57.29
9110;BME280;4590;51.462;6.692;2023-02-16T00:45:24;102237.44;;;8.15;57.36
9110;BME280;4590;51.462;6.692;2023-02-16T00:47:50;102238.25;;;8.15;57.37
9110;BME280;4590;51.462;6.692;2023-02-16T00:50:18;102244.56;;;8.16;57.15
9110;BME280;4590;51.462;6.692;2023-02-16T00:52:44;102241.00;;;8.15;57.03
9110;BME280;4590;51.462;6.692;2023-02-16T00:55:15;102239.59;;;8.13;56.98
9110;BME280;4590;51.462;6.692;2023-02-16T00:57:55;102239.19;;;8.04;57.21
9110;BME280;4590;51.462;6.692;2023-02-16T01:00:28;102233.31;;;7.95;57.42
9110;BME280;4590;51.462;6.692;2023-02-16T01:02:57;102239.13;;;7.99;57.50
9110;BME280;4590;51.462;6.692;2023-02-16T01:05:23;102236.63;;;7.97;57.72
9110;BME280;4590;51.462;6.692;2023-02-16T01:07:48;102243.13;;;7.91;57.69
9110;BME280;4590;51.462;6.692;2023-02-16T01:10:34;102238.13;;;7.88;57.57
9110;BME280;4590;51.462;6.692;2023-02-16T01:13:18;102243.31;;;7.85;57.88
9110;BME280;4590;51.462;6.692;2023-02-16T01:15:44;102236.75;;;7.86;57.51
9110;BME280;4590;51.462;6.692;2023-02-16T01:18:13;102233.69;;;7.82;57.69
9110;BME280;4590;51.462;6.692;2023-02-16T01:20:39;102239.16;;;7.82;57.54
9110;BME280;4590;51.462;6.692;2023-02-16T01:23:04;102235.00;;;7.80;57.64
9110;BME280;4590;51.462;6.692;2023-02-16T01:25:29;102232.75;;;7.77;57.62
9110;BME280;4590;51.462;6.692;2023-02-16T01:27:55;102234.09;;;7.74;57.92
9110;BME280;4590;51.462;6.692;2023-02-16T01:30:23;102240.66;;;7.73;57.72
9110;BME280;4590;51.462;6.692;2023-02-16T01:32:48;102228.03;;;7.72;57.93
9110;BME280;4590;51.462;6.692;2023-02-16T01:35:27;102230.72;;;7.67;57.52
9110;BME280;4590;51.462;6.692;2023-02-16T01:37:54;102230.22;;;7.70;57.66
9110;BME280;4590;51.462;6.692;2023-02-16T01:43:03;102235.03;;;7.63;58.01
9110;BME280;4590;51.462;6.692;2023-02-16T01:45:35;102230.38;;;7.63;57.88
9110;BME280;4590;51.462;6.692;2023-02-16T01:48:04;102228.72;;;7.62;58.21
9110;BME280;4590;51.462;6.692;2023-02-16T01:50:43;102226.72;;;7.58;58.35
9110;BME280;4590;51.462;6.692;2023-02-16T01:53:19;102230.03;;;7.60;58.17
9110;BME280;4590;51.462;6.692;2023-02-16T01:55:48;102223.97;;;7.58;57.65
9110;BME280;4590;51.462;6.692;2023-02-16T02:03:24;102225.00;;;7.52;57.88
9110;BME280;4590;51.462;6.692;2023-02-16T02:06:11;102225.81;;;7.52;58.06
9110;BME280;4590;51.462;6.692;2023-02-16T02:08:42;102220.59;;;7.51;57.74
9110;BME280;4590;51.462;6.692;2023-02-16T02:11:31;102218.34;;;7.48;58.05
9110;BME280;4590;51.462;6.692;2023-02-16T02:14:11;102208.72;;;7.45;58.36
9110;BME280;4590;51.462;6.692;2023-02-16T02:16:38;102215.38;;;7.49;58.07
9110;BME280;4590;51.462;6.692;2023-02-16T02:19:03;102206.16;;;7.38;58.58
9110;BME280;4590;51.462;6.692;2023-02-16T02:27:25;102212.03;;;7.30;58.31
9110;BME280;4590;51.462;6.692;2023-02-16T02:30:07;102205.97;;;7.28;58.36
9110;BME280;4590;51.462;6.692;2023-02-16T02:43:22;102178.44;;;7.18;59.18
9110;BME280;4590;51.462;6.692;2023-02-16T02:48:23;102170.97;;;7.14;59.07
9110;BME280;4590;51.462;6.692;2023-02-16T02:50:56;102168.00;;;7.15;59.33
9110;BME280;4590;51.462;6.692;2023-02-16T02:53:44;102170.31;;;7.07;60.28
9110;BME280;4590;51.462;6.692;2023-02-16T02:56:13;102156.41;;;7.08;58.88
9110;BME280;4590;51.462;6.692;2023-02-16T02:59:03;102164.66;;;6.96;60.10
9110;BME280;4590;51.462;6.692;2023-02-16T03:01:54;102169.75;;;7.04;58.85
9110;BME280;4590;51.462;6.692;2023-02-16T03:04:23;102148.59;;;7.00;59.10
9110;BME280;4590;51.462;6.692;2023-02-16T03:06:51;102170.56;;;7.05;59.26
9110;BME280;4590;51.462;6.692;2023-02-16T03:09:17;102158.13;;;6.97;59.56
9110;BME280;4590;51.462;6.692;2023-02-16T03:11:45;102152.81;;;6.91;59.56
9110;BME280;4590;51.462;6.692;2023-02-16T03:14:36;102153.38;;;6.93;59.56
9110;BME280;4590;51.462;6.692;2023-02-16T03:17:08;102137.13;;;6.86;60.09
9110;BME280;4590;51.462;6.692;2023-02-16T03:19:54;102141.09;;;6.95;59.74
9110;BME280;4590;51.462;6.692;2023-02-16T03:22:39;102146.09;;;6.98;59.61
9110;BME280;4590;51.462;6.692;2023-02-16T03:25:25;102134.78;;;6.78;60.51
9110;BME280;4590;51.462;6.692;2023-02-16T03:28:12;102144.09;;;6.94;59.65
9110;BME280;4590;51.462;6.692;2023-02-16T03:30:56;102145.69;;;6.61;61.78
9110;BME280;4590;51.462;6.692;2023-02-16T03:33:23;102157.13;;;6.87;60.30
9110;BME280;4590;51.462;6.692;2023-02-16T03:35:49;102158.31;;;6.62;62.36
9110;BME280;4590;51.462;6.692;2023-02-16T03:38:15;102141.09;;;6.79;60.63
9110;BME280;4590;51.462;6.692;2023-02-16T03:40:41;102139.63;;;6.88;59.60
9110;BME280;4590;51.462;6.692;2023-02-16T03:43:08;102148.19;;;6.91;59.69
9110;BME280;4590;51.462;6.692;2023-02-16T03:45:36;102152.69;;;6.69;60.96
9110;BME280;4590;51.462;6.692;2023-02-16T03:48:03;102156.78;;;6.83;60.09
9110;BME280;4590;51.462;6.692;2023-02-16T03:50:29;102164.84;;;6.90;59.75
9110;BME280;4590;51.462;6.692;2023-02-16T03:52:54;102157.94;;;6.87;60.17
9110;BME280;4590;51.462;6.692;2023-02-16T03:55:36;102147.34;;;6.91;59.83
9110;BME280;4590;51.462;6.692;2023-02-16T03:58:02;102144.38;;;6.92;59.45
9110;BME280;4590;51.462;6.692;2023-02-16T04:00:28;102145.25;;;6.98;59.24
9110;BME280;4590;51.462;6.692;2023-02-16T04:02:54;102146.69;;;7.00;59.66
9110;BME280;4590;51.462;6.692;2023-02-16T04:05:19;102139.28;;;7.01;59.30
9110;BME280;4590;51.462;6.692;2023-02-16T04:07:44;102140.63;;;6.98;59.40
9110;BME280;4590;51.462;6.692;2023-02-16T04:10:10;102136.81;;;6.99;59.17
9110;BME280;4590;51.462;6.692;2023-02-16T04:12:35;102133.00;;;7.00;59.56
9110;BME280;4590;51.462;6.692;2023-02-16T04:15:04;102141.09;;;6.95;59.39
9110;BME280;4590;51.462;6.692;2023-02-16T04:17:30;102157.28;;;6.97;59.51
9110;BME280;4590;51.462;6.692;2023-02-16T04:19:56;102144.78;;;7.01;59.38
9110;BME280;4590;51.462;6.692;2023-02-16T04:22:21;102131.50;;;6.76;60.88
9110;BME280;4590;51.462;6.692;2023-02-16T04:24:46;102133.97;;;6.78;60.02
9110;BME280;4590;51.462;6.692;2023-02-16T04:27:11;102128.44;;;6.89;59.46
9110;BME280;4590;51.462;6.692;2023-02-16T04:29:37;102150.38;;;6.94;59.77
9110;BME280;4590;51.462;6.692;2023-02-16T04:32:03;102143.59;;;6.97;59.57
9110;BME280;4590;51.462;6.692;2023-02-16T04:34:28;102151.31;;;6.83;61.43
9110;BME280;4590;51.462;6.692;2023-02-16T04:36:54;102158.13;;;6.97;59.05
9110;BME280;4590;51.462;6.692;2023-02-16T04:39:19;102157.63;;;7.00;58.81
9110;BME280;4590;51.462;6.692;2023-02-16T04:41:44;102146.09;;;6.98;59.50
9110;BME280;4590;51.462;6.692;2023-02-16T04:44:10;102135.81;;;6.89;59.75
9110;BME280;4590;51.462;6.692;2023-02-16T04:46:35;102140.47;;;6.88;59.60
9110;BME280;4590;51.462;6.692;2023-02-16T04:49:00;102155.03;;;6.94;59.53
9110;BME280;4590;51.462;6.692;2023-02-16T04:51:25;102136.94;;;6.93;59.40
9110;BME280;4590;51.462;6.692;2023-02-16T04:53:51;102140.03;;;6.96;59.42
9110;BME280;4590;51.462;6.692;2023-02-16T04:56:16;102140.03;;;6.96;59.49
9110;BME280;4590;51.462;6.692;2023-02-16T04:58:41;102154.22;;;6.93;59.30
9110;BME280;4590;51.462;6.692;2023-02-16T05:01:07;102143.44;;;6.87;59.46
9110;BME280;4590;51.462;6.692;2023-02-16T05:03:32;102137.28;;;6.80;60.08
9110;BME280;4590;51.462;6.692;2023-02-16T05:05:58;102139.13;;;6.74;59.45
9110;BME280;4590;51.462;6.692;2023-02-16T05:08:23;102144.91;;;6.78;59.55
9110;BME280;4590;51.462;6.692;2023-02-16T05:10:49;102138.94;;;6.81;59.63
9110;BME280;4590;51.462;6.692;2023-02-16T05:13:34;102144.66;;;6.79;59.49
9110;BME280;4590;51.462;6.692;2023-02-16T05:16:23;102144.50;;;6.69;59.87
9110;BME280;4590;51.462;6.692;2023-02-16T05:18:48;102145.41;;;6.75;59.88
9110;BME280;4590;51.462;6.692;2023-02-16T05:21:14;102148.41;;;6.73;59.33
9110;BME280;4590;51.462;6.692;2023-02-16T05:23:59;102154.94;;;6.72;59.88
9110;BME280;4590;51.462;6.692;2023-02-16T05:26:25;102157.91;;;6.71;60.23
9110;BME280;4590;51.462;6.692;2023-02-16T05:28:50;102156.84;;;6.72;59.23
9110;BME280;4590;51.462;6.692;2023-02-16T05:31:16;102154.34;;;6.70;59.65
9110;BME280;4590;51.462;6.692;2023-02-16T05:33:41;102151.88;;;6.68;59.73
9110;BME280;4590;51.462;6.692;2023-02-16T05:36:07;102161.16;;;6.67;59.89
9110;BME280;4590;51.462;6.692;2023-02-16T05:38:32;102161.97;;;6.68;59.11
9110;BME280;4590;51.462;6.692;2023-02-16T05:40:58;102164.72;;;6.68;59.58
9110;BME280;4590;51.462;6.692;2023-02-16T05:43:24;102170.19;;;6.68;60.14
9110;BME280;4590;51.462;6.692;2023-02-16T05:45:49;102162.81;;;6.68;59.49
9110;BME280;4590;51.462;6.692;2023-02-16T05:48:14;102154.00;;;6.66;59.16
9110;BME280;4590;51.462;6.692;2023-02-16T05:50:40;102156.81;;;6.55;60.33
9110;BME280;4590;51.462;6.692;2023-02-16T05:53:05;102158.00;;;6.59;60.10
9110;BME280;4590;51.462;6.692;2023-02-16T05:55:30;102154.75;;;6.62;59.68
9110;BME280;4590;51.462;6.692;2023-02-16T05:57:55;102149.69;;;6.54;60.45
9110;BME280;4590;51.462;6.692;2023-02-16T06:00:21;102147.28;;;6.57;60.48
9110;BME280;4590;51.462;6.692;2023-02-16T06:02:46;102146.72;;;6.55;60.33
9110;BME280;4590;51.462;6.692;2023-02-16T06:05:11;102146.34;;;6.52;60.15
9110;BME280;4590;51.462;6.692;2023-02-16T06:07:37;102142.19;;;6.49;60.82
9110;BME280;4590;51.462;6.692;2023-02-16T06:10:02;102143.97;;;6.55;60.35
9110;BME280;4590;51.462;6.692;2023-02-16T06:12:28;102150.03;;;6.57;60.23
9110;BME280;4590;51.462;6.692;2023-02-16T06:14:53;102147.38;;;6.62;60.01
9110;BME280;4590;51.462;6.692;2023-02-16T06:17:20;102146.53;;;6.62;60.23
9110;BME280;4590;51.462;6.692;2023-02-16T06:19:45;102143.38;;;6.53;60.75
9110;BME280;4590;51.462;6.692;2023-02-16T06:22:10;102141.47;;;6.54;60.50
9110;BME280;4590;51.462;6.692;2023-02-16T06:24:35;102137.97;;;6.42;61.71
9110;BME280;4590;51.462;6.692;2023-02-16T06:27:02;102133.41;;;6.47;60.88
9110;BME280;4590;51.462;6.692;2023-02-16T06:29:27;102137.56;;;6.50;60.97
9110;BME280;4590;51.462;6.692;2023-02-16T06:31:53;102142.19;;;6.49;60.90
9110;BME280;4590;51.462;6.692;2023-02-16T06:34:18;102142.31;;;6.54;60.33
9110;BME280;4590;51.462;6.692;2023-02-16T06:36:43;102140.16;;;6.56;60.72
9110;BME280;4590;51.462;6.692;2023-02-16T06:39:09;102136.84;;;6.54;61.12
9110;BME280;4590;51.462;6.692;2023-02-16T06:41:34;102145.88;;;6.55;60.84
9110;BME280;4590;51.462;6.692;2023-02-16T06:44:09;102152.00;;;6.45;61.75
9110;BME280;4590;51.462;6.692;2023-02-16T06:46:36;102144.22;;;6.54;61.18
9110;BME280;4590;51.462;6.692;2023-02-16T06:49:02;102149.25;;;6.45;61.50
9110;BME280;4590;51.462;6.692;2023-02-16T06:51:28;102142.19;;;6.49;61.41
9110;BME280;4590;51.462;6.692;2023-02-16T06:53:53;102133.81;;;6.39;62.03
9110;BME280;4590;51.462;6.692;2023-02-16T06:56:19;102139.94;;;6.46;61.51
9110;BME280;4590;51.462;6.692;2023-02-16T06:58:44;102138.63;;;6.49;61.53
9110;BME280;4590;51.462;6.692;2023-02-16T07:01:09;102135.38;;;6.35;62.31
9110;BME280;4590;51.462;6.692;2023-02-16T07:03:35;102139.91;;;6.58;61.06
9110;BME280;4590;51.462;6.692;2023-02-16T07:06:00;102141.22;;;6.55;61.43
9110;BME280;4590;51.462;6.692;2023-02-16T07:08:26;102139.69;;;6.59;61.13
9110;BME280;4590;51.462;6.692;2023-02-16T07:10:52;102142.97;;;6.45;61.79
9110;BME280;4590;51.462;6.692;2023-02-16T07:13:17;102138.75;;;6.54;61.63
9110;BME280;4590;51.462;6.692;2023-02-16T07:15:43;102138.09;;;6.63;61.43
9110;BME280;4590;51.462;6.692;2023-02-16T07:18:08;102137.81;;;6.48;61.87
9110;BME280;4590;51.462;6.692;2023-02-16T07:20:33;102143.91;;;6.67;61.33
9110;BME280;4590;51.462;6.692;2023-02-16T07:22:59;102154.47;;;6.75;60.90
9110;BME280;4590;51.462;6.692;2023-02-16T07:25:24;102152.28;;;6.77;60.72
9110;BME280;4590;51.462;6.692;2023-02-16T07:27:50;102152.38;;;6.82;60.42
9110;BME280;4590;51.462;6.692;2023-02-16T07:30:16;102147.34;;;6.91;60.46
9110;BME280;4590;51.462;6.692;2023-02-16T07:32:42;102151.75;;;6.92;60.66
9110;BME280;4590;51.462;6.692;2023-02-16T07:35:07;102148.25;;;6.96;60.46
9110;BME280;4590;51.462;6.692;2023-02-16T07:37:33;102160.13;;;7.02;60.18
9110;BME280;4590;51.462;6.692;2023-02-16T07:39:58;102151.16;;;7.07;60.01
9110;BME280;4590;51.462;6.692;2023-02-16T07:42:23;102156.47;;;7.13;59.94
9110;BME280;4590;51.462;6.692;2023-02-16T07:44:49;102150.50;;;7.16;60.05
9110;BME280;4590;51.462;6.692;2023-02-16T07:47:14;102159.88;;;7.20;59.69
9110;BME280;4590;51.462;6.692;2023-02-16T07:49:39;102166.47;;;7.24;59.66
9110;BME280;4590;51.462;6.692;2023-02-16T07:52:05;102154.72;;;7.24;60.07
9110;BME280;4590;51.462;6.692;2023-02-16T07:54:31;102163.59;;;7.31;60.01
9110;BME280;4590;51.462;6.692;2023-02-16T07:56:56;102162.53;;;7.15;61.22
9110;BME280;4590;51.462;6.692;2023-02-16T07:59:22;102149.31;;;7.29;60.25
9110;BME280;4590;51.462;6.692;2023-02-16T08:01:47;102150.00;;;7.36;60.22
9110;BME280;4590;51.462;6.692;2023-02-16T08:04:12;102152.25;;;7.22;60.30
9110;BME280;4590;51.462;6.692;2023-02-16T08:06:38;102160.94;;;7.36;60.47
9110;BME280;4590;51.462;6.692;2023-02-16T08:09:03;102153.69;;;7.47;60.12
9110;BME280;4590;51.462;6.692;2023-02-16T08:11:28;102154.53;;;7.47;59.85
9110;BME280;4590;51.462;6.692;2023-02-16T08:13:54;102159.84;;;7.54;60.12
9110;BME280;4590;51.462;6.692;2023-02-16T08:16:21;102149.97;;;7.53;60.12
9110;BME280;4590;51.462;6.692;2023-02-16T08:18:47;102154.41;;;7.59;59.45
9110;BME280;4590;51.462;6.692;2023-02-16T08:21:15;102156.66;;;7.62;59.30
9110;BME280;4590;51.462;6.692;2023-02-16T08:23:43;102169.84;;;7.65;59.84
9110;BME280;4590;51.462;6.692;2023-02-16T08:26:12;102168.78;;;7.66;59.34
9110;BME280;4590;51.462;6.692;2023-02-16T08:28:38;102165.00;;;7.72;59.36
9110;BME280;4590;51.462;6.692;2023-02-16T08:31:13;102165.34;;;7.75;59.39
9110;BME280;4590;51.462;6.692;2023-02-16T08:33:39;102162.59;;;7.75;59.62
9110;BME280;4590;51.462;6.692;2023-02-16T08:36:05;102163.44;;;7.76;59.73
9110;BME280;4590;51.462;6.692;2023-02-16T08:38:34;102165.09;;;7.77;59.29
9110;BME280;4590;51.462;6.692;2023-02-16T08:40:59;102158.63;;;7.83;59.50
9110;BME280;4590;51.462;6.692;2023-02-16T08:43:24;102161.28;;;7.78;59.40
9110;BME280;4590;51.462;6.692;2023-02-16T08:45:51;102156.50;;;7.90;59.87
9110;BME280;4590;51.462;6.692;2023-02-16T08:48:17;102155.50;;;7.96;59.78
9110;BME280;4590;51.462;6.692;2023-02-16T08:50:44;102152.88;;;8.06;59.44
9110;BME280;4590;51.462;6.692;2023-02-16T08:53:12;102155.03;;;8.26;59.54
9110;BME280;4590;51.462;6.692;2023-02-16T08:55:37;102159.91;;;8.41;59.73
9110;BME280;4590;51.462;6.692;2023-02-16T08:58:03;102151.63;;;8.63;58.83
9110;BME280;4590;51.462;6.692;2023-02-16T09:00:28;102152.03;;;8.76;58.70
9110;BME280;4590;51.462;6.692;2023-02-16T09:02:59;102158.38;;;8.77;58.13
9110;BME280;4590;51.462;6.692;2023-02-16T09:05:26;102150.16;;;8.82;58.23
9110;BME280;4590;51.462;6.692;2023-02-16T09:07:52;102154.16;;;8.96;57.91
9110;BME280;4590;51.462;6.692;2023-02-16T09:10:18;102156.06;;;8.96;57.68
9110;BME280;4590;51.462;6.692;2023-02-16T09:12:43;102150.66;;;9.06;57.71
9110;BME280;4590;51.462;6.692;2023-02-16T09:15:12;102164.44;;;9.11;57.35
9110;BME280;4590;51.462;6.692;2023-02-16T09:17:38;102160.06;;;9.15;57.74
9110;BME280;4590;51.462;6.692;2023-02-16T09:20:04;102157.72;;;9.34;57.57
9110;BME280;4590;51.462;6.692;2023-02-16T09:22:30;102160.25;;;9.40;57.15
9110;BME280;4590;51.462;6.692;2023-02-16T09:24:55;102172.97;;;9.52;56.65
9110;BME280;4590;51.462;6.692;2023-02-16T09:27:20;102173.59;;;9.64;56.64
9110;BME280;4590;51.462;6.692;2023-02-16T09:29:46;102175.88;;;9.72;56.21
9110;BME280;4590;51.462;6.692;2023-02-16T09:32:11;102173.34;;;9.65;56.01
9110;BME280;4590;51.462;6.692;2023-02-16T09:34:36;102178.88;;;9.70;55.99
9110;BME280;4590;51.462;6.692;2023-02-16T09:37:02;102179.13;;;9.69;55.95
9110;BME280;4590;51.462;6.692;2023-02-16T09:39:27;102182.44;;;9.71;55.77
9110;BME280;4590;51.462;6.692;2023-02-16T09:47:01;102200.56;;;9.67;55.71
9110;BME280;4590;51.462;6.692;2023-02-16T09:49:32;102204.97;;;9.68;55.55
9110;BME280;4590;51.462;6.692;2023-02-16T09:52:08;102206.06;;;9.67;55.62
9110;BME280;4590;51.462;6.692;2023-02-16T09:54:52;102206.72;;;9.47;54.85
9110;BME280;4590;51.462;6.692;2023-02-16T10:00:24;102202.16;;;9.58;55.63
9110;BME280;4590;51.462;6.692;2023-02-16T10:05:50;102195.47;;;9.48;54.98
9110;BME280;4590;51.462;6.692;2023-02-16T10:08:26;102183.91;;;9.46;55.51
9110;BME280;4590;51.462;6.692;2023-02-16T10:11:34;102188.66;;;9.19;55.73
9110;BME280;4590;51.462;6.692;2023-02-16T10:14:39;102200.06;;;9.38;55.70
9110;BME280;4590;51.462;6.692;2023-02-16T10:17:21;102198.72;;;9.40;55.83
9110;BME280;4590;51.462;6.692;2023-02-16T10:20:02;102201.69;;;9.34;55.88
9110;BME280;4590;51.462;6.692;2023-02-16T10:22:47;102201.63;;;9.29;56.28
9110;BME280;4590;51.462;6.692;2023-02-16T10:27:51;102211.13;;;9.43;55.73
9110;BME280;4590;51.462;6.692;2023-02-16T10:30:21;102202.56;;;9.44;56.02
9110;BME280;4590;51.462;6.692;2023-02-16T10:35:16;102203.72;;;9.48;56.32
9110;BME280;4590;51.462;6.692;2023-02-16T10:38:02;102202.88;;;9.48;55.99
9110;BME280;4590;51.462;6.692;2023-02-16T10:43:14;102212.78;;;9.49;56.58
9110;BME280;4590;51.462;6.692;2023-02-16T10:45:52;102206.31;;;9.65;55.92
9110;BME280;4590;51.462;6.692;2023-02-16T10:48:20;102198.94;;;9.76;56.26
9110;BME280;4590;51.462;6.692;2023-02-16T10:51:01;102202.00;;;9.74;56.40
9110;BME280;4590;51.462;6.692;2023-02-16T10:55:56;102192.72;;;9.85;56.48
9110;BME280;4590;51.462;6.692;2023-02-16T10:58:25;102196.59;;;9.90;56.01
9110;BME280;4590;51.462;6.692;2023-02-16T11:01:14;102184.94;;;9.72;56.47
9110;BME280;4590;51.462;6.692;2023-02-16T11:03:45;102184.25;;;9.97;56.32
9110;BME280;4590;51.462;6.692;2023-02-16T11:06:22;102180.34;;;9.93;56.03
9110;BME280;4590;51.462;6.692;2023-02-16T11:08:57;102175.50;;;10.05;56.27
9110;BME280;4590;51.462;6.692;2023-02-16T11:11:26;102175.50;;;10.10;55.99
9110;BME280;4590;51.462;6.692;2023-02-16T11:14:04;102167.50;;;10.09;56.06
9110;BME280;4590;51.462;6.692;2023-02-16T11:16:31;102167.53;;;10.14;55.89
9110;BME280;4590;51.462;6.692;2023-02-16T11:18:59;102164.03;;;10.18;56.17
9110;BME280;4590;51.462;6.692;2023-02-16T11:21:49;102151.84;;;10.09;56.03
9110;BME280;4590;51.462;6.692;2023-02-16T11:24:33;102140.78;;;9.94;57.12
9110;BME280;4590;51.462;6.692;2023-02-16T11:27:04;102147.72;;;10.07;56.79
9110;BME280;4590;51.462;6.692;2023-02-16T11:29:29;102144.19;;;10.16;57.17
9110;BME280;4590;51.462;6.692;2023-02-16T11:31:56;102143.69;;;10.19;57.34
9110;BME280;4590;51.462;6.692;2023-02-16T11:34:49;102153.53;;;10.15;57.86
9110;BME280;4590;51.462;6.692;2023-02-16T11:37:23;102158.25;;;10.20;57.81
9110;BME280;4590;51.462;6.692;2023-02-16T11:39:52;102159.66;;;10.28;57.80
9110;BME280;4590;51.462;6.692;2023-02-16T11:42:37;102161.00;;;10.20;58.18
9110;BME280;4590;51.462;6.692;2023-02-16T11:45:15;102145.34;;;10.31;58.12
9110;BME280;4590;51.462;6.692;2023-02-16T11:47:52;102145.31;;;10.26;58.67
9110;BME280;4590;51.462;6.692;2023-02-16T11:50:21;102144.25;;;10.32;58.37
9110;BME280;4590;51.462;6.692;2023-02-16T11:52:55;102140.97;;;10.35;58.84
9110;BME280;4590;51.462;6.692;2023-02-16T11:55:30;102140.41;;;10.33;58.94
9110;BME280;4590;51.462;6.692;2023-02-16T11:58:19;102129.66;;;10.26;59.79
9110;BME280;4590;51.462;6.692;2023-02-16T12:06:29;102125.84;;;10.37;59.78
9110;BME280;4590;51.462;6.692;2023-02-16T12:09:12;102129.44;;;10.38;60.61
9110;BME280;4590;51.462;6.692;2023-02-16T12:11:58;102132.69;;;10.30;61.10
9110;BME280;4590;51.462;6.692;2023-02-16T12:20:04;102129.47;;;10.53;60.74
9110;BME280;4590;51.462;6.692;2023-02-16T12:22:54;102127.81;;;10.57;60.88
9110;BME280;4590;51.462;6.692;2023-02-16T12:25:30;102134.72;;;10.70;60.43
9110;BME280;4590;51.462;6.692;2023-02-16T12:31:14;102123.69;;;10.75;61.05
9110;BME280;4590;51.462;6.692;2023-02-16T12:39:17;102128.97;;;10.97;60.86
9110;BME280;4590;51.462;6.692;2023-02-16T12:42:11;102129.22;;;11.05;61.18
9110;BME280;4590;51.462;6.692;2023-02-16T12:44:46;102117.94;;;11.17;61.04
9110;BME280;4590;51.462;6.692;2023-02-16T12:47:24;102121.22;;;11.24;60.69
9110;BME280;4590;51.462;6.692;2023-02-16T12:50:29;102119.28;;;11.19;61.36
9110;BME280;4590;51.462;6.692;2023-02-16T12:53:03;102111.59;;;11.32;60.45
9110;BME280;4590;51.462;6.692;2023-02-16T12:55:42;102115.69;;;11.34;60.44
9110;BME280;4590;51.462;6.692;2023-02-16T13:00:42;102090.06;;;11.39;60.62
9110;BME280;4590;51.462;6.692;2023-02-16T13:05:50;102098.06;;;11.45;60.46
9110;BME280;4590;51.462;6.692;2023-02-16T13:13:34;102092.50;;;11.55;60.87
9110;BME280;4590;51.462;6.692;2023-02-16T13:16:07;102089.19;;;11.58;60.72
9110;BME280;4590;51.462;6.692;2023-02-16T13:18:37;102085.31;;;11.59;61.14
9110;BME280;4590;51.462;6.692;2023-02-16T13:27:26;102063.22;;;11.75;61.41
9110;BME280;4590;51.462;6.692;2023-02-16T13:30:03;102058.81;;;11.79;61.06
9110;BME280;4590;51.462;6.692;2023-02-16T13:33:07;102048.34;;;11.76;60.98
9110;BME280;4590;51.462;6.692;2023-02-16T13:38:54;102056.88;;;11.69;61.17
9110;BME280;4590;51.462;6.692;2023-02-16T13:43:59;102060.72;;;11.73;60.85
9110;BME280;4590;51.462;6.692;2023-02-16T13:46:43;102059.91;;;11.68;61.65
9110;BME280;4590;51.462;6.692;2023-02-16T13:49:29;102045.63;;;11.60;61.90
9110;BME280;4590;51.462;6.692;2023-02-16T13:51:58;102032.50;;;11.27;64.61
9110;BME280;4590;51.462;6.692;2023-02-16T13:54:30;102019.00;;;11.31;63.32
9110;BME280;4590;51.462;6.692;2023-02-16T13:56:58;102024.47;;;11.36;63.08
9110;BME280;4590;51.462;6.692;2023-02-16T14:01:52;102025.06;;;11.33;63.60
9110;BME280;4590;51.462;6.692;2023-02-16T14:06:50;102009.34;;;11.33;63.91
9110;BME280;4590;51.462;6.692;2023-02-16T14:16:52;101990.34;;;11.27;65.22
9110;BME280;4590;51.462;6.692;2023-02-16T14:19:23;101984.84;;;11.27;65.61
9110;BME280;4590;51.462;6.692;2023-02-16T14:21:50;101984.00;;;11.31;65.13
9110;BME280;4590;51.462;6.692;2023-02-16T14:24:36;101986.75;;;11.31;65.50
9110;BME280;4590;51.462;6.692;2023-02-16T14:27:08;101976.25;;;11.38;65.37
9110;BME280;4590;51.462;6.692;2023-02-16T14:29:41;101979.00;;;11.38;65.59
9110;BME280;4590;51.462;6.692;2023-02-16T14:32:28;101990.06;;;11.28;66.50
9110;BME280;4590;51.462;6.692;2023-02-16T14:35:03;101979.63;;;11.20;65.83
9110;BME280;4590;51.462;6.692;2023-02-16T14:37:34;101978.44;;;11.36;65.09
9110;BME280;4590;51.462;6.692;2023-02-16T14:42:45;101985.59;;;11.42;64.80
9110;BME280;4590;51.462;6.692;2023-02-16T14:48:29;101980.38;;;11.46;64.99
9110;BME280;4590;51.462;6.692;2023-02-16T14:57:01;101958.28;;;11.51;64.67
9110;BME280;4590;51.462;6.692;2023-02-16T14:59:47;101943.72;;;11.45;64.33
9110;BME280;4590;51.462;6.692;2023-02-16T15:02:37;101937.59;;;11.53;64.04
9110;BME280;4590;51.462;6.692;2023-02-16T15:05:19;101931.03;;;11.39;64.69
9110;BME280;4590;51.462;6.692;2023-02-16T15:07:47;101928.78;;;11.51;64.35
9110;BME280;4590;51.462;6.692;2023-02-16T15:10:22;101911.75;;;11.44;64.44
9110;BME280;4590;51.462;6.692;2023-02-16T15:12:51;101915.53;;;11.53;63.99
9110;BME280;4590;51.462;6.692;2023-02-16T15:15:19;101919.09;;;11.59;64.06
9110;BME280;4590;51.462;6.692;2023-02-16T15:17:47;101922.13;;;11.57;63.70
9110;BME280;4590;51.462;6.692;2023-02-16T15:20:22;101934.47;;;11.65;63.68
9110;BME280;4590;51.462;6.692;2023-02-16T15:22:50;101928.13;;;11.70;63.62
9110;BME280;4590;51.462;6.692;2023-02-16T15:25:28;101923.16;;;11.72;63.45
9110;BME280;4590;51.462;6.692;2023-02-16T15:30:38;101933.03;;;11.83;63.59
9110;BME280;4590;51.462;6.692;2023-02-16T15:33:09;101934.94;;;11.87;63.16
9110;BME280;4590;51.462;6.692;2023-02-16T15:35:42;101934.38;;;11.90;63.19